Hauptseite
METAR-TAF:

METAR-TAF

Flughäfen :

Flughafen Sønderborg

Sønderborg, Dänemark

Breite: 54-58N, Länge: 009-47E, Höhe: 7 m

Beobachtung

Neuester Wetterbericht von vor 15 Minuten, um 05:20 UTC
Wind 9 kt aus Süd/Südwest, variierte zwischen Süd und West/Südwest
Temperatur 11°C
Luftfeuchtigkeit 87%
Luftdruck 1020 hPa
Sichtweite 10 km oder mehr
Leicht bewölkt in der Höhe von 2500 ft

METAR: EKSB 070520Z 21009KT 180V240 9999 FEW025 11/09 Q1020

Zeit: 07:35 (05:35 UTC)

Prognose

Neuester Wetterbericht von vor 34 Minuten, um 05:01 UTC
Gültige Prognose vom 07 um 05 UTC bis 07 um 12 UTC
Wind 12 kt aus Süd/Südwest
Sichtweite 10 km oder mehr
Durchbrochene Bewölkung in der Höhe von 2000 ft
Zeitweise
vom 07 um 08 UTC bis 07 um 12 UTC
Wind 16 kt aus Südwest, Böen bis zu 28 kt

TAF: EKSB 070501Z 0705/0712 21012KT 9999 BKN020 TEMPO 0708/0712 23016G28KT

Wetterbeobachtungen und Prognosen von mehr als 4000 Flughäfen (METAR und TAF Bericht).

Die verfügbaren Stationen werden durch gelbe und rote Markierungen auf der Karte dargestellt.

Führen Sie die Maus auf sie, um den Namen der Station zu sehen.

Darauf klicken, um die Beobachtung von Wetterbeobachtungen und Prognosen zu sehen.

Um die Karte zu ändern : klicken Sie auf den grünen Tasten mit einem schwarzen Kreuz Zum Vergrößern, auf den grünen Button mit einem Gedankenstrich zu verkleinern, oder auf die grünen Pfeile für benachbarte Karten.


METAR-TAF: